createdAt,value
2018-03-23T00:01:38.537Z,17.17
2018-03-23T00:04:05.984Z,17.47
2018-03-23T00:06:33.457Z,18.60
2018-03-23T00:09:00.907Z,16.73
2018-03-23T00:11:28.378Z,17.55
2018-03-23T00:13:55.983Z,16.53
2018-03-23T00:16:23.440Z,16.48
2018-03-23T00:18:50.964Z,15.40
2018-03-23T00:21:19.997Z,15.82
2018-03-23T00:23:52.093Z,17.10
2018-03-23T00:26:19.817Z,17.10
2018-03-23T00:28:47.282Z,15.82
2018-03-23T00:31:14.737Z,16.07
2018-03-23T00:33:42.221Z,14.95
2018-03-23T00:36:09.671Z,18.02
2018-03-23T00:38:37.134Z,15.90
2018-03-23T00:41:04.781Z,16.30
2018-03-23T00:43:33.159Z,18.23
2018-03-23T00:46:03.478Z,15.10
2018-03-23T00:48:30.964Z,15.60
2018-03-23T00:50:58.729Z,15.60
2018-03-23T00:53:26.373Z,15.27
2018-03-23T00:55:53.944Z,16.20
2018-03-23T00:58:21.385Z,16.23
2018-03-23T01:00:49.060Z,13.80
2018-03-23T01:03:17.230Z,14.65
2018-03-23T01:05:44.717Z,15.60
2018-03-23T01:08:12.157Z,14.07
2018-03-23T01:10:39.638Z,15.40
2018-03-23T01:13:07.116Z,15.37
2018-03-23T01:15:34.560Z,14.53
2018-03-23T01:18:02.031Z,13.17
2018-03-23T01:20:29.502Z,14.90
2018-03-23T01:22:57.209Z,15.80
2018-03-23T01:25:28.657Z,13.18
2018-03-23T01:27:56.094Z,13.33
2018-03-23T01:30:23.875Z,13.37
2018-03-23T01:32:51.325Z,13.80
2018-03-23T01:35:18.809Z,13.70
2018-03-23T01:37:46.282Z,14.50
2018-03-23T01:40:17.701Z,15.00
2018-03-23T01:42:45.372Z,14.77
2018-03-23T01:45:12.841Z,12.33
2018-03-23T01:47:40.348Z,14.57
2018-03-23T01:50:07.842Z,12.30
2018-03-23T01:52:35.285Z,13.50
2018-03-23T01:55:06.980Z,12.70
2018-03-23T01:57:35.421Z,13.62
2018-03-23T02:00:03.067Z,14.17
2018-03-23T02:02:30.522Z,12.47
2018-03-23T02:04:57.971Z,11.97
2018-03-23T02:07:25.461Z,13.10
2018-03-23T02:09:52.934Z,13.38
2018-03-23T02:12:20.368Z,13.27
2018-03-23T02:14:48.773Z,12.35
2018-03-23T02:17:16.986Z,11.37
2018-03-23T02:19:44.698Z,13.43
2018-03-23T02:22:13.067Z,13.50
2018-03-23T02:24:40.540Z,12.88
2018-03-23T02:27:08.312Z,14.10
2018-03-23T02:29:36.530Z,15.53
2018-03-23T02:32:03.997Z,13.67
2018-03-23T02:34:33.726Z,12.55
2018-03-23T02:37:01.194Z,14.17
2018-03-23T02:39:28.681Z,14.55
2018-03-23T02:42:01.964Z,14.23
2018-03-23T02:44:29.398Z,12.10
2018-03-23T02:46:58.359Z,15.13
2018-03-23T02:49:25.828Z,14.43
2018-03-23T02:51:53.617Z,15.20
2018-03-23T02:54:21.057Z,14.40
2018-03-23T02:56:52.522Z,15.73
2018-03-23T02:59:19.988Z,13.60
2018-03-23T03:01:47.437Z,14.30
2018-03-23T03:04:14.914Z,16.93
2018-03-23T03:06:42.376Z,15.13
2018-03-23T03:09:10.301Z,17.45
2018-03-23T03:11:37.801Z,14.40
2018-03-23T03:14:07.047Z,18.80
2018-03-23T03:16:34.497Z,16.80
2018-03-23T03:19:01.960Z,18.00
2018-03-23T03:21:29.409Z,16.33
2018-03-23T03:23:57.004Z,16.70
2018-03-23T03:26:28.317Z,19.87
2018-03-23T03:28:59.881Z,19.85
2018-03-23T03:31:28.213Z,19.00
2018-03-23T03:33:57.273Z,17.52
2018-03-23T03:36:24.741Z,21.53
2018-03-23T03:38:52.202Z,19.43
2018-03-23T03:41:22.101Z,19.73
2018-03-23T03:43:49.585Z,18.60
2018-03-23T03:46:17.074Z,20.37
2018-03-23T03:48:44.683Z,17.77
2018-03-23T03:51:12.165Z,19.90
2018-03-23T03:53:40.337Z,17.20
2018-03-23T03:56:07.811Z,17.12
2018-03-23T03:58:35.265Z,16.37
2018-03-23T04:01:02.741Z,16.17
2018-03-23T04:03:30.215Z,17.60
2018-03-23T04:05:57.708Z,15.65
2018-03-23T04:08:25.183Z,17.80
2018-03-23T04:10:54.346Z,19.83
2018-03-23T04:13:21.801Z,18.23
2018-03-23T04:15:49.593Z,16.67
2018-03-23T04:18:17.053Z,17.90
2018-03-23T04:20:44.527Z,20.93
2018-03-23T04:23:12.019Z,17.27
2018-03-23T04:25:39.949Z,19.37
2018-03-23T04:28:11.782Z,20.80
2018-03-23T04:30:39.269Z,20.63
2018-03-23T04:33:06.709Z,16.57
2018-03-23T04:35:34.441Z,17.60
2018-03-23T04:38:03.598Z,20.60
2018-03-23T04:40:31.043Z,18.97
2018-03-23T04:43:03.377Z,18.30
2018-03-23T04:45:31.516Z,18.23
2018-03-23T04:47:59.125Z,18.77
2018-03-23T04:50:26.564Z,19.70
2018-03-23T04:52:54.027Z,20.80
2018-03-23T04:55:21.505Z,20.13
2018-03-23T04:57:48.949Z,18.75
2018-03-23T05:00:18.850Z,20.42
2018-03-23T05:02:47.255Z,22.30
2018-03-23T05:05:14.724Z,20.15
2018-03-23T05:07:42.931Z,19.83
2018-03-23T05:10:10.397Z,19.80
2018-03-23T05:12:37.898Z,18.43
2018-03-23T05:15:05.369Z,18.42
2018-03-23T05:17:32.817Z,19.17
2018-03-23T05:20:01.953Z,20.37
2018-03-23T05:22:29.420Z,19.53
2018-03-23T05:24:56.866Z,21.30
2018-03-23T05:27:24.349Z,19.08
2018-03-23T05:29:51.810Z,19.95
2018-03-23T05:32:19.264Z,20.88
2018-03-23T05:34:46.925Z,19.17
2018-03-23T05:37:14.847Z,21.23
2018-03-23T05:39:42.292Z,19.23
2018-03-23T05:42:10.539Z,20.80
2018-03-23T05:44:42.605Z,21.02
2018-03-23T05:47:10.049Z,20.33
2018-03-23T05:49:38.362Z,21.30
2018-03-23T05:52:05.838Z,21.77
2018-03-23T05:54:33.317Z,21.58
2018-03-23T05:57:00.811Z,19.92
2018-03-23T05:59:28.952Z,20.62
2018-03-23T06:01:56.478Z,21.70
2018-03-23T06:04:23.992Z,20.23
2018-03-23T06:06:51.488Z,20.37
2018-03-23T06:09:19.018Z,22.20
2018-03-23T06:11:46.453Z,21.83
2018-03-23T06:14:18.524Z,21.13
2018-03-23T06:16:45.977Z,22.73
2018-03-23T06:19:13.450Z,20.65
2018-03-23T06:21:41.093Z,21.50
2018-03-23T06:24:08.554Z,20.23
2018-03-23T06:26:36.029Z,21.67
2018-03-23T06:29:03.505Z,20.33
2018-03-23T06:31:30.946Z,21.12
2018-03-23T06:33:58.454Z,21.37
2018-03-23T06:36:26.616Z,23.06
2018-03-23T06:38:54.108Z,22.00
2018-03-23T06:41:21.794Z,20.23
2018-03-23T06:43:49.304Z,22.70
2018-03-23T06:46:16.766Z,21.07
2018-03-23T06:48:44.208Z,21.70
2018-03-23T06:51:11.662Z,21.65
2018-03-23T06:53:40.793Z,21.60
2018-03-23T06:56:08.269Z,20.27
2018-03-23T06:58:35.737Z,22.90
2018-03-23T07:01:03.216Z,19.73
2018-03-23T07:03:30.713Z,19.55
2018-03-23T07:05:58.164Z,18.87
2018-03-23T07:08:25.647Z,20.67
2018-03-23T07:10:54.199Z,18.73
2018-03-23T07:13:21.790Z,17.43
2018-03-23T07:15:49.334Z,16.10
2018-03-23T07:18:16.829Z,16.67
2018-03-23T07:20:44.474Z,17.73
2018-03-23T07:23:11.912Z,16.57
2018-03-23T07:25:39.365Z,16.80
2018-03-23T07:28:07.674Z,15.63
2018-03-23T07:30:42.090Z,15.20
2018-03-23T07:33:09.680Z,16.50
2018-03-23T07:35:37.133Z,18.75
2018-03-23T07:38:04.606Z,16.30
2018-03-23T07:40:32.079Z,17.00
2018-03-23T07:43:00.488Z,17.80
2018-03-23T07:45:28.065Z,16.77
2018-03-23T07:47:55.514Z,18.05
2018-03-23T07:50:22.976Z,16.15
2018-03-23T07:52:50.417Z,17.30
2018-03-23T07:55:18.090Z,17.07
2018-03-23T07:57:45.551Z,16.87
2018-03-23T08:00:13.021Z,17.05
2018-03-23T08:02:41.298Z,17.42
2018-03-23T08:05:08.776Z,15.57
2018-03-23T08:07:36.245Z,15.83
2018-03-23T08:10:03.726Z,16.97
2018-03-23T08:12:31.202Z,15.83
2018-03-23T08:14:58.658Z,15.53
2018-03-23T08:17:26.124Z,16.77
2018-03-23T08:19:53.596Z,18.63
2018-03-23T08:22:21.342Z,14.77
2018-03-23T08:24:49.293Z,16.52
2018-03-23T08:27:16.760Z,14.87
2018-03-23T08:29:44.229Z,16.00
2018-03-23T08:32:19.485Z,15.47
2018-03-23T08:34:46.956Z,15.83
2018-03-23T08:37:14.901Z,15.60
2018-03-23T08:39:42.617Z,14.70
2018-03-23T08:42:10.210Z,15.90
2018-03-23T08:44:37.736Z,18.50
2018-03-23T08:47:05.187Z,19.30
2018-03-23T08:49:32.761Z,21.17
2018-03-23T08:52:00.245Z,16.47
2018-03-23T08:54:28.329Z,17.58
2018-03-23T08:56:55.793Z,15.80
2018-03-23T08:59:24.018Z,15.77
2018-03-23T09:01:51.709Z,18.93
2018-03-23T09:04:23.472Z,17.20
2018-03-23T09:06:50.949Z,15.83
2018-03-23T09:09:18.388Z,20.60
2018-03-23T09:11:45.857Z,17.93
2018-03-23T09:14:13.342Z,13.82
2018-03-23T09:16:40.822Z,15.60
2018-03-23T09:19:08.449Z,15.63
2018-03-23T09:21:35.884Z,16.10
2018-03-23T09:24:03.361Z,15.45
2018-03-23T09:26:30.801Z,18.80
2018-03-23T09:28:58.267Z,17.23
2018-03-23T09:31:26.374Z,18.15
2018-03-23T09:33:56.920Z,19.23
2018-03-23T09:36:24.389Z,17.60
2018-03-23T09:38:51.855Z,19.50
2018-03-23T09:41:19.325Z,18.73
2018-03-23T09:43:46.814Z,18.97
2018-03-23T09:46:14.273Z,18.73
2018-03-23T09:48:41.969Z,18.97
2018-03-23T09:51:10.337Z,16.42
2018-03-23T09:53:37.853Z,17.50
2018-03-23T09:56:05.280Z,20.67
2018-03-23T09:58:32.745Z,19.42
2018-03-23T10:01:00.510Z,20.52
2018-03-23T10:03:27.971Z,19.40
2018-03-23T10:05:56.186Z,16.13
2018-03-23T10:08:23.742Z,20.90
2018-03-23T10:10:51.215Z,19.43
2018-03-23T10:13:18.706Z,21.33
2018-03-23T10:15:46.136Z,19.70
2018-03-23T10:18:16.681Z,17.63
2018-03-23T10:20:44.173Z,17.65
2018-03-23T10:23:11.598Z,18.60
2018-03-23T10:25:39.054Z,19.48
2018-03-23T10:28:06.829Z,19.90
2018-03-23T10:30:34.285Z,20.00
2018-03-23T10:33:02.950Z,18.77
2018-03-23T10:35:30.521Z,17.02
2018-03-23T10:37:57.920Z,17.43
2018-03-23T10:40:25.442Z,17.23
2018-03-23T10:42:52.984Z,20.10
2018-03-23T10:45:21.225Z,19.37
2018-03-23T10:47:48.673Z,18.62
2018-03-23T10:50:16.414Z,18.60
2018-03-23T10:52:44.044Z,20.20
2018-03-23T10:55:11.545Z,17.00
2018-03-23T10:57:39.001Z,21.03
2018-03-23T11:00:06.810Z,17.58
2018-03-23T11:02:38.481Z,21.30
2018-03-23T11:05:06.306Z,19.50
2018-03-23T11:07:34.575Z,21.37
2018-03-23T11:10:02.804Z,18.77
2018-03-23T11:12:30.253Z,18.67
2018-03-23T11:14:57.725Z,16.60
2018-03-23T11:17:25.238Z,18.20
2018-03-23T11:19:56.945Z,19.80
2018-03-23T11:22:25.919Z,19.73
2018-03-23T11:24:53.390Z,22.43
2018-03-23T11:27:20.836Z,18.60
2018-03-23T11:29:48.313Z,17.33
2018-03-23T11:32:15.904Z,19.57
2018-03-23T11:34:47.787Z,20.28
2018-03-23T11:37:15.229Z,17.62
2018-03-23T11:39:42.704Z,19.70
2018-03-23T11:42:10.149Z,17.95
2018-03-23T11:44:37.828Z,16.93
2018-03-23T11:47:05.261Z,17.57
2018-03-23T11:49:34.617Z,18.98
2018-03-23T11:52:02.088Z,16.35
2018-03-23T11:54:29.560Z,17.70
2018-03-23T11:56:58.700Z,16.37
2018-03-23T11:59:26.177Z,19.83
2018-03-23T12:01:53.638Z,16.77
2018-03-23T12:04:21.115Z,17.67
2018-03-23T12:06:48.769Z,19.50
2018-03-23T12:09:16.213Z,17.20
2018-03-23T12:11:43.682Z,17.73
2018-03-23T12:14:11.146Z,19.04
2018-03-23T12:16:38.622Z,17.10
2018-03-23T12:19:06.862Z,17.52
2018-03-23T12:21:34.352Z,16.60
2018-03-23T12:24:01.795Z,18.87
2018-03-23T12:26:29.238Z,18.13
2018-03-23T12:28:56.749Z,19.70
2018-03-23T12:31:24.262Z,17.42
2018-03-23T12:33:51.713Z,18.85
2018-03-23T12:36:19.182Z,17.17
2018-03-23T12:38:46.649Z,15.30
2018-03-23T12:41:16.590Z,18.54
2018-03-23T12:43:44.046Z,18.33
2018-03-23T12:46:11.667Z,18.80
2018-03-23T12:48:39.752Z,18.00
2018-03-23T12:51:12.058Z,18.08
2018-03-23T12:53:40.122Z,15.90
2018-03-23T12:56:07.580Z,16.67
2018-03-23T12:58:35.027Z,17.43
2018-03-23T13:01:03.276Z,16.77
2018-03-23T13:03:30.730Z,19.70
2018-03-23T13:06:00.657Z,16.37
2018-03-23T13:08:28.070Z,19.33
2018-03-23T13:10:55.517Z,17.27
2018-03-23T13:13:22.969Z,16.23
2018-03-23T13:15:50.489Z,16.83
2018-03-23T13:18:18.793Z,18.05
2018-03-23T13:20:46.261Z,17.07
2018-03-23T13:23:17.277Z,16.97
2018-03-23T13:25:45.722Z,15.70
2018-03-23T13:28:13.664Z,16.42
2018-03-23T13:30:41.349Z,15.03
2018-03-23T13:33:08.825Z,16.73
2018-03-23T13:35:36.534Z,15.77
2018-03-23T13:38:07.413Z,16.67
2018-03-23T13:40:35.108Z,17.37
2018-03-23T13:43:02.983Z,16.28
2018-03-23T13:45:30.572Z,15.03
2018-03-23T13:47:58.016Z,15.77
2018-03-23T13:50:25.519Z,15.60
2018-03-23T13:52:53.003Z,17.33
2018-03-23T13:55:20.462Z,15.50
2018-03-23T13:57:47.938Z,15.93
2018-03-23T14:00:21.168Z,15.60
2018-03-23T14:02:48.665Z,16.13
2018-03-23T14:05:17.728Z,13.77
2018-03-23T14:07:47.604Z,16.60
2018-03-23T14:10:15.055Z,15.83
2018-03-23T14:12:42.517Z,15.60
2018-03-23T14:15:09.961Z,16.05
2018-03-23T14:17:37.477Z,14.97
2018-03-23T14:20:04.894Z,16.60
2018-03-23T14:22:35.465Z,15.23
2018-03-23T14:25:04.408Z,16.95
2018-03-23T14:27:31.912Z,15.70
2018-03-23T14:29:59.665Z,16.20
2018-03-23T14:32:27.330Z,14.00
2018-03-23T14:34:55.736Z,14.13
2018-03-23T14:37:23.189Z,16.97
2018-03-23T14:39:50.664Z,15.40
2018-03-23T14:42:18.138Z,15.40
2018-03-23T14:44:45.645Z,14.90
2018-03-23T14:47:13.113Z,16.20
2018-03-23T14:49:40.576Z,16.27
2018-03-23T14:52:08.023Z,15.47
2018-03-23T14:54:35.488Z,13.90
2018-03-23T14:57:02.936Z,14.82
2018-03-23T14:59:34.341Z,14.53
2018-03-23T15:02:01.844Z,14.43
2018-03-23T15:04:29.293Z,12.27
2018-03-23T15:06:56.745Z,12.60
2018-03-23T15:09:25.726Z,14.30
2018-03-23T15:11:54.576Z,12.43
2018-03-23T15:14:22.056Z,13.27
2018-03-23T15:16:49.559Z,15.77
2018-03-23T15:19:18.716Z,14.98
2018-03-23T15:21:46.213Z,15.77
2018-03-23T15:24:17.857Z,15.00
2018-03-23T15:26:45.306Z,14.70
2018-03-23T15:29:13.169Z,14.93
2018-03-23T15:31:40.624Z,16.25
2018-03-23T15:34:08.094Z,15.20
2018-03-23T15:36:35.557Z,19.80
2018-03-23T15:39:09.054Z,15.83
2018-03-23T15:41:36.506Z,16.97
2018-03-23T15:44:04.028Z,15.50
2018-03-23T15:46:31.510Z,15.30
2018-03-23T15:48:59.094Z,15.25
2018-03-23T15:51:27.582Z,15.40
2018-03-23T15:53:55.021Z,17.67
2018-03-23T15:56:22.521Z,15.23
2018-03-23T15:58:50.127Z,15.27
2018-03-23T16:01:17.584Z,16.42
2018-03-23T16:03:45.166Z,15.57
2018-03-23T16:06:12.621Z,15.82
2018-03-23T16:08:41.036Z,14.93
2018-03-23T16:11:08.482Z,14.95
2018-03-23T16:13:36.061Z,16.90
2018-03-23T16:16:03.516Z,15.38
2018-03-23T16:18:31.201Z,15.13
2018-03-23T16:20:58.600Z,16.08
2018-03-23T16:23:26.201Z,15.20
2018-03-23T16:25:53.638Z,15.60
2018-03-23T16:28:21.133Z,17.95
2018-03-23T16:30:49.065Z,16.92
2018-03-23T16:33:16.524Z,15.95
2018-03-23T16:35:43.964Z,16.10
2018-03-23T16:38:12.221Z,18.27
2018-03-23T16:40:39.668Z,17.00
2018-03-23T16:43:07.149Z,17.77
2018-03-23T16:45:35.375Z,18.25
2018-03-23T16:48:02.949Z,18.50
2018-03-23T16:50:30.480Z,19.80
2018-03-23T16:52:57.953Z,16.80
2018-03-23T16:55:28.553Z,17.83
2018-03-23T16:57:56.046Z,16.85
2018-03-23T17:00:23.505Z,18.07
2018-03-23T17:02:50.971Z,17.30
2018-03-23T17:05:18.443Z,16.33
2018-03-23T17:07:45.913Z,17.85
2018-03-23T17:10:13.357Z,17.63
2018-03-23T17:12:43.131Z,18.50
2018-03-23T17:15:11.562Z,18.63
2018-03-23T17:17:39.013Z,18.48
2018-03-23T17:20:06.878Z,18.23
2018-03-23T17:22:34.446Z,17.47
2018-03-23T17:25:01.910Z,17.93
2018-03-23T17:27:29.373Z,16.33
2018-03-23T17:29:56.903Z,17.87
2018-03-23T17:32:24.655Z,18.37
2018-03-23T17:34:52.285Z,18.90
2018-03-23T17:37:20.125Z,18.42
2018-03-23T17:39:47.595Z,17.87
2018-03-23T17:42:15.334Z,19.43
2018-03-23T17:44:42.801Z,17.23
2018-03-23T17:47:11.041Z,17.77
2018-03-23T17:49:39.791Z,19.02
2018-03-23T17:52:07.283Z,19.10
2018-03-23T17:54:34.766Z,20.87
2018-03-23T17:57:02.851Z,19.43
2018-03-23T17:59:30.297Z,20.60
2018-03-23T18:01:59.333Z,21.42
2018-03-23T18:04:26.822Z,20.80
2018-03-23T18:06:54.448Z,19.53
2018-03-23T18:09:22.974Z,20.80
2018-03-23T18:11:50.626Z,16.93
2018-03-23T18:14:18.073Z,17.47
2018-03-23T18:16:45.548Z,20.20
2018-03-23T18:19:13.405Z,17.07
2018-03-23T18:21:41.038Z,19.20
2018-03-23T18:24:08.501Z,17.13
2018-03-23T18:26:40.377Z,19.52
2018-03-23T18:29:07.825Z,20.30
2018-03-23T18:31:35.314Z,20.05
2018-03-23T18:34:02.782Z,20.87
2018-03-23T18:36:30.218Z,18.70
2018-03-23T18:38:57.716Z,18.52
2018-03-23T18:41:25.176Z,20.50
2018-03-23T18:43:52.649Z,20.90
2018-03-23T18:46:21.458Z,20.60
2018-03-23T18:48:48.932Z,21.50
2018-03-23T18:51:16.389Z,21.20
2018-03-23T18:53:43.865Z,21.30
2018-03-23T18:56:11.332Z,21.63
2018-03-23T18:58:40.344Z,22.60
2018-03-23T19:01:07.858Z,19.23
2018-03-23T19:03:35.325Z,19.70
2018-03-23T19:06:02.936Z,23.10
2018-03-23T19:08:30.432Z,21.15
2018-03-23T19:10:58.829Z,19.73
2018-03-23T19:13:26.513Z,21.90
2018-03-23T19:15:54.837Z,21.37
2018-03-23T19:18:22.370Z,21.13
2018-03-23T19:20:49.964Z,19.35
2018-03-23T19:23:18.136Z,20.10
2018-03-23T19:25:45.585Z,21.73
2018-03-23T19:28:17.565Z,20.70
2018-03-23T19:30:45.009Z,21.60
2018-03-23T19:33:14.000Z,21.62
2018-03-23T19:35:41.673Z,23.47
2018-03-23T19:38:09.926Z,20.52
2018-03-23T19:40:37.793Z,21.17
2018-03-23T19:43:05.196Z,20.52
2018-03-23T19:45:32.663Z,22.63
2018-03-23T19:48:00.355Z,20.53
2018-03-23T19:50:27.913Z,23.13
2018-03-23T19:52:55.373Z,20.25
2018-03-23T19:55:22.903Z,20.13
2018-03-23T19:57:50.296Z,21.08
2018-03-23T20:00:17.742Z,20.03
2018-03-23T20:02:46.257Z,19.10
2018-03-23T20:05:13.617Z,21.10
2018-03-23T20:07:41.081Z,19.70
2018-03-23T20:10:08.530Z,20.27
2018-03-23T20:12:36.020Z,20.73
2018-03-23T20:15:03.456Z,19.27
2018-03-23T20:17:36.544Z,21.35
2018-03-23T20:20:09.554Z,21.87
2018-03-23T20:22:37.016Z,21.00
2018-03-23T20:25:04.470Z,22.00
2018-03-23T20:27:37.529Z,21.77
2018-03-23T20:30:05.178Z,22.80
2018-03-23T20:32:32.805Z,23.43
2018-03-23T20:35:01.955Z,21.37
2018-03-23T20:37:29.520Z,21.20
2018-03-23T20:39:57.112Z,22.40
2018-03-23T20:42:24.583Z,25.83
2018-03-23T20:44:52.046Z,27.53
2018-03-23T20:47:19.528Z,24.33
2018-03-23T20:49:47.065Z,21.67
2018-03-23T20:52:15.383Z,24.08
2018-03-23T20:54:42.857Z,23.37
2018-03-23T20:57:10.471Z,26.23
2018-03-23T20:59:37.910Z,26.95
2018-03-23T21:02:05.373Z,24.17
2018-03-23T21:04:33.811Z,27.33
2018-03-23T21:07:02.056Z,23.42
2018-03-23T21:09:29.508Z,22.80
2018-03-23T21:11:57.048Z,21.37
2018-03-23T21:14:24.513Z,23.60
2018-03-23T21:16:51.981Z,20.93
2018-03-23T21:19:19.450Z,20.83
2018-03-23T21:21:46.909Z,20.70
2018-03-23T21:24:14.387Z,21.02
2018-03-23T21:26:42.758Z,23.33
2018-03-23T21:29:10.228Z,23.97
2018-03-23T21:31:37.709Z,23.38
2018-03-23T21:34:05.153Z,24.07
2018-03-23T21:36:32.625Z,20.85
2018-03-23T21:39:00.085Z,24.27
2018-03-23T21:41:27.564Z,23.60
2018-03-23T21:43:55.021Z,20.83
2018-03-23T21:46:22.493Z,21.65
2018-03-23T21:48:52.381Z,24.67
2018-03-23T21:51:19.833Z,21.85
2018-03-23T21:53:47.317Z,22.07
2018-03-23T21:56:15.797Z,21.15
2018-03-23T21:58:43.270Z,24.00
2018-03-23T22:01:10.741Z,21.80
2018-03-23T22:03:38.989Z,22.60
2018-03-23T22:06:06.493Z,23.25
2018-03-23T22:08:33.941Z,23.45
2018-03-23T22:11:01.440Z,22.53
2018-03-23T22:13:29.516Z,20.02
2018-03-23T22:15:56.921Z,20.37
2018-03-23T22:18:24.412Z,22.20
2018-03-23T22:20:52.009Z,20.45
2018-03-23T22:23:19.470Z,21.60
2018-03-23T22:25:46.938Z,20.30
2018-03-23T22:28:14.390Z,21.57
2018-03-23T22:30:46.772Z,19.87
2018-03-23T22:33:14.296Z,22.13
2018-03-23T22:35:41.740Z,24.00
2018-03-23T22:38:09.214Z,23.77
2018-03-23T22:40:36.991Z,21.07
2018-03-23T22:43:05.973Z,20.90
2018-03-23T22:45:47.603Z,20.40
2018-03-23T22:48:15.148Z,22.17
2018-03-23T22:50:42.789Z,20.62
2018-03-23T22:53:10.412Z,21.42
2018-03-23T22:55:37.897Z,19.40
2018-03-23T22:58:06.205Z,18.93
2018-03-23T23:00:33.893Z,19.37
2018-03-23T23:03:01.501Z,18.30
2018-03-23T23:05:28.961Z,19.67
2018-03-23T23:07:56.441Z,17.33
2018-03-23T23:10:25.501Z,19.57
2018-03-23T23:12:53.697Z,19.87
2018-03-23T23:15:21.217Z,18.83
2018-03-23T23:17:48.751Z,19.67
2018-03-23T23:20:16.238Z,18.80
2018-03-23T23:22:44.049Z,16.87
2018-03-23T23:25:12.448Z,17.30
2018-03-23T23:27:40.164Z,18.40
2018-03-23T23:30:07.687Z,15.63
2018-03-23T23:32:35.166Z,16.53
2018-03-23T23:35:02.882Z,19.07
2018-03-23T23:37:30.438Z,18.83
2018-03-23T23:39:57.971Z,17.95
2018-03-23T23:42:26.369Z,18.02
2018-03-23T23:44:53.818Z,19.87
2018-03-23T23:47:21.253Z,18.60
2018-03-23T23:49:48.782Z,19.07
2018-03-23T23:52:16.328Z,18.13
2018-03-23T23:54:44.052Z,20.03
2018-03-23T23:57:11.649Z,19.90
2018-03-23T23:59:40.843Z,18.95
